Time;durP1;ratioP1;P1;durP2;ratioP2;P2;SDS_P1;SDS_P2;PMS_P1;PMS_P2;Temp;Humidity;BMP_temperature;BMP_pressure;BME280_temperature;BME280_humidity;BME280_pressure;Samples;Min_cycle;Max_cycle;Signal;HPM_P1;HPM_P2
2021/04/02 00:02:59;;;;;;;4.43;4.00;;;18.70;44.60;;;;;;6249661;28;20243;-61
2021/04/02 00:06:03;;;;;;;5.80;4.03;;;18.80;44.80;;;;;;6250127;28;20769;-60
2021/04/02 00:09:07;;;;;;;5.93;3.60;;;18.70;44.90;;;;;;6249831;28;20524;-61
2021/04/02 00:12:10;;;;;;;5.70;3.50;;;18.70;45.10;;;;;;6225302;28;20549;-61
2021/04/02 00:15:17;;;;;;;4.83;3.60;;;18.70;45.10;;;;;;6225569;28;20492;-62
2021/04/02 00:18:19;;;;;;;3.87;3.10;;;18.70;45.40;;;;;;6225732;28;20220;-62
2021/04/02 00:21:21;;;;;;;4.33;3.10;;;18.70;45.40;;;;;;6238049;28;20254;-61
2021/04/02 00:24:24;;;;;;;4.00;2.93;;;18.70;45.50;;;;;;6250162;28;20233;-62
2021/04/02 00:27:26;;;;;;;5.83;2.93;;;18.60;45.60;;;;;;6247512;28;20234;-62
2021/04/02 00:30:34;;;;;;;4.97;3.60;;;18.60;45.70;;;;;;6246959;28;20228;-62
2021/04/02 00:33:36;;;;;;;5.80;3.40;;;18.50;45.80;;;;;;6247159;28;20833;-62
2021/04/02 00:36:38;;;;;;;6.33;3.73;;;18.50;46.00;;;;;;6246906;28;20236;-61
2021/04/02 00:39:41;;;;;;;4.43;3.27;;;18.40;46.30;;;;;;6242338;28;20475;-61
2021/04/02 00:42:44;;;;;;;5.20;3.53;;;18.30;46.60;;;;;;6248372;28;20240;-62
2021/04/02 00:45:46;;;;;;;5.23;3.77;;;18.20;47.20;;;;;;6249455;28;20467;-62
2021/04/02 00:48:49;;;;;;;5.10;4.40;;;18.20;46.90;;;;;;6249741;28;20514;-62
2021/04/02 00:51:51;;;;;;;6.53;3.57;;;18.10;47.10;;;;;;6249272;28;20481;-62
2021/04/02 00:54:54;;;;;;;5.90;3.70;;;18.10;47.20;;;;;;6249728;28;20477;-61
2021/04/02 00:57:56;;;;;;;6.17;3.33;;;18.00;47.80;;;;;;6249418;28;20467;-62
2021/04/02 01:00:59;;;;;;;6.73;3.30;;;18.00;47.90;;;;;;6249725;28;20463;-62
2021/04/02 01:04:02;;;;;;;7.50;4.00;;;17.90;47.80;;;;;;6249498;28;20490;-62
2021/04/02 01:07:05;;;;;;;8.43;3.20;;;17.90;47.90;;;;;;6234851;28;20547;-62
2021/04/02 01:10:11;;;;;;;4.57;3.50;;;17.90;48.20;;;;;;6244465;28;21002;-63
2021/04/02 01:13:16;;;;;;;5.23;3.63;;;17.80;48.20;;;;;;6226204;28;20476;-63
2021/04/02 01:16:20;;;;;;;3.90;3.40;;;17.70;48.50;;;;;;6222712;28;20472;-62
2021/04/02 01:19:29;;;;;;;5.33;3.40;;;17.60;48.60;;;;;;6223206;28;20491;-62
2021/04/02 01:22:33;;;;;;;6.67;4.13;;;17.60;49.60;;;;;;6223083;28;20992;-62
2021/04/02 01:25:49;;;;;;;6.00;3.20;;;17.60;49.30;;;;;;6225222;28;20472;-62
2021/04/02 01:29:08;;;;;;;3.80;2.70;;;17.50;49.40;;;;;;6228784;28;20559;-63
2021/04/02 01:32:13;;;;;;;5.07;3.13;;;17.40;49.60;;;;;;6228889;28;20487;-62
2021/04/02 01:35:20;;;;;;;5.53;3.40;;;17.30;49.60;;;;;;6228781;28;20490;-62
2021/04/02 01:38:27;;;;;;;8.33;4.17;;;17.20;50.00;;;;;;6229382;28;20468;-62
2021/04/02 01:41:30;;;;;;;5.30;4.10;;;17.20;50.50;;;;;;6228866;28;20490;-62
2021/04/02 01:44:37;;;;;;;5.00;3.43;;;17.10;50.60;;;;;;6215520;28;20487;-63
2021/04/02 01:47:40;;;;;;;10.00;3.37;;;17.10;50.90;;;;;;6228975;28;20483;-61
2021/04/02 01:50:46;;;;;;;4.30;3.17;;;17.00;51.50;;;;;;6228925;28;20827;-61
2021/04/02 01:53:51;;;;;;;8.23;4.37;;;16.90;51.40;;;;;;6228787;28;20490;-61
2021/04/02 01:56:54;;;;;;;6.30;3.27;;;16.90;51.40;;;;;;6229032;28;20547;-61
2021/04/02 01:59:58;;;;;;;4.27;3.33;;;16.80;51.70;;;;;;6228777;28;20475;-61
2021/04/02 02:03:01;;;;;;;5.60;3.00;;;16.70;52.20;;;;;;6228933;28;20479;-60
2021/04/02 02:06:05;;;;;;;4.50;3.63;;;16.60;52.50;;;;;;6228670;28;20440;-60
2021/04/02 02:09:11;;;;;;;11.97;3.90;;;16.50;52.70;;;;;;6228576;28;20766;-60
2021/04/02 02:12:16;;;;;;;6.80;3.57;;;16.40;52.80;;;;;;6228870;28;20424;-58
2021/04/02 02:15:19;;;;;;;8.20;3.80;;;16.20;53.80;;;;;;6228199;28;20489;-57
2021/04/02 02:18:25;;;;;;;7.60;3.60;;;16.20;53.20;;;;;;6228255;28;20458;-57
2021/04/02 02:21:28;;;;;;;13.13;3.97;;;16.20;53.40;;;;;;6228565;28;20471;-59
2021/04/02 02:24:30;;;;;;;4.30;3.07;;;16.20;53.50;;;;;;6228513;28;20474;-58
2021/04/02 02:27:33;;;;;;;8.10;3.80;;;16.10;53.80;;;;;;6228084;28;20806;-58
2021/04/02 02:30:37;;;;;;;9.83;3.00;;;16.10;53.80;;;;;;6228170;28;20946;-58
2021/04/02 02:33:40;;;;;;;6.70;3.37;;;16.20;53.70;;;;;;6228356;28;20479;-58
2021/04/02 02:36:42;;;;;;;5.70;3.97;;;16.30;53.80;;;;;;6227732;28;20551;-58
2021/04/02 02:39:45;;;;;;;6.03;3.43;;;16.30;53.60;;;;;;6228102;28;20973;-58
2021/04/02 02:42:49;;;;;;;7.00;3.53;;;16.40;53.90;;;;;;6228167;28;20487;-58
2021/04/02 02:45:52;;;;;;;7.37;3.60;;;16.40;53.60;;;;;;6222946;28;20476;-58
2021/04/02 02:48:59;;;;;;;8.70;3.80;;;16.50;53.80;;;;;;6227903;28;20480;-57
2021/04/02 02:52:02;;;;;;;11.70;4.20;;;16.50;53.60;;;;;;6227663;28;20583;-58
2021/04/02 02:55:06;;;;;;;7.87;4.00;;;16.40;53.50;;;;;;6227654;28;20487;-58
2021/04/02 02:58:09;;;;;;;5.97;3.63;;;16.30;53.80;;;;;;6227731;28;20475;-58
2021/04/02 03:01:15;;;;;;;10.30;3.90;;;16.40;54.20;;;;;;6227413;28;21000;-58
2021/04/02 03:04:18;;;;;;;7.70;3.43;;;16.40;54.20;;;;;;6227755;28;20472;-58
2021/04/02 03:07:22;;;;;;;8.33;4.07;;;16.40;54.50;;;;;;6227284;28;20476;-58
2021/04/02 03:10:26;;;;;;;7.73;4.40;;;16.40;54.60;;;;;;6227179;28;20824;-58
2021/04/02 03:13:29;;;;;;;6.43;3.30;;;16.30;54.90;;;;;;6227292;28;20476;-58
2021/04/02 03:16:34;;;;;;;9.83;3.33;;;16.30;55.20;;;;;;6227205;28;20472;-58
2021/04/02 03:19:38;;;;;;;8.77;3.57;;;16.30;55.10;;;;;;6227098;28;20475;-58
2021/04/02 03:22:40;;;;;;;8.73;3.87;;;16.20;55.10;;;;;;6226967;28;20487;-58
2021/04/02 03:25:46;;;;;;;4.40;2.67;;;16.10;55.10;;;;;;6226897;28;20960;-58
2021/04/02 03:28:51;;;;;;;10.63;4.50;;;16.10;55.20;;;;;;6227372;28;20476;-58
2021/04/02 03:31:59;;;;;;;5.77;3.07;;;16.10;56.20;;;;;;6226769;28;20820;-58
2021/04/02 03:35:02;;;;;;;6.83;3.17;;;16.10;56.30;;;;;;6226683;28;20504;-58
2021/04/02 03:38:09;;;;;;;5.10;3.90;;;16.10;55.70;;;;;;6226664;28;20545;-61
2021/04/02 03:41:14;;;;;;;9.17;3.73;;;16.10;55.90;;;;;;6226579;28;20472;-61
2021/04/02 03:44:17;;;;;;;4.30;3.30;;;16.00;55.90;;;;;;6226882;28;20828;-58
2021/04/02 03:47:21;;;;;;;5.77;3.70;;;16.00;56.20;;;;;;6225766;28;20475;-58
2021/04/02 03:50:29;;;;;;;6.10;3.37;;;16.00;56.20;;;;;;6226931;28;20537;-58
2021/04/02 03:53:34;;;;;;;5.53;3.20;;;15.90;56.30;;;;;;6226107;28;20480;-57
2021/04/02 03:56:38;;;;;;;5.10;3.10;;;16.00;56.50;;;;;;6226127;28;20834;-58
2021/04/02 03:59:43;;;;;;;12.43;3.13;;;16.00;56.50;;;;;;6226105;28;20491;-57
2021/04/02 04:02:49;;;;;;;5.77;3.13;;;16.00;56.50;;;;;;6226006;28;20591;-58
2021/04/02 04:05:54;;;;;;;6.77;3.80;;;16.00;57.00;;;;;;6225967;28;20476;-59
2021/04/02 04:08:58;;;;;;;7.50;3.73;;;16.00;56.30;;;;;;6225980;28;20481;-59
2021/04/02 04:12:01;;;;;;;6.93;2.93;;;16.00;56.30;;;;;;6225899;28;20977;-58
2021/04/02 04:15:05;;;;;;;6.10;3.97;;;16.00;56.50;;;;;;6225191;28;20487;-58
2021/04/02 04:18:09;;;;;;;6.60;3.87;;;16.00;56.70;;;;;;6226094;28;20456;-59
2021/04/02 04:21:12;;;;;;;5.53;3.17;;;16.10;56.80;;;;;;6225564;28;20964;-58
2021/04/02 04:24:16;;;;;;;9.37;3.37;;;16.10;56.60;;;;;;6225845;28;20479;-58
2021/04/02 04:27:19;;;;;;;10.23;4.03;;;16.10;56.70;;;;;;6225854;28;20447;-59
2021/04/02 04:30:24;;;;;;;7.73;3.83;;;16.10;57.50;;;;;;6225843;28;20455;-58
2021/04/02 04:33:29;;;;;;;8.33;4.73;;;16.10;57.10;;;;;;6225991;28;20486;-59
2021/04/02 04:36:32;;;;;;;5.30;3.60;;;16.10;57.40;;;;;;6225285;28;20793;-59
2021/04/02 04:39:36;;;;;;;8.73;4.00;;;16.10;57.50;;;;;;6225464;28;20918;-59
2021/04/02 04:42:39;;;;;;;5.50;3.63;;;16.10;57.40;;;;;;6225679;28;20487;-58
2021/04/02 04:45:42;;;;;;;5.70;3.30;;;16.00;57.90;;;;;;6224945;28;20988;-58
2021/04/02 04:48:45;;;;;;;10.70;3.50;;;16.00;57.50;;;;;;6225531;28;20468;-58
2021/04/02 04:51:50;;;;;;;5.07;3.20;;;16.00;57.60;;;;;;6225292;28;20487;-58
2021/04/02 04:54:53;;;;;;;6.40;3.60;;;16.00;58.20;;;;;;6216261;28;20491;-58
2021/04/02 04:57:58;;;;;;;7.27;3.97;;;16.00;57.80;;;;;;6225605;28;20468;-58
2021/04/02 05:01:04;;;;;;;7.40;3.87;;;16.00;57.90;;;;;;6229909;28;20786;-58
2021/04/02 05:04:09;;;;;;;12.90;3.90;;;16.00;58.00;;;;;;6230064;28;20972;-58
2021/04/02 05:07:12;;;;;;;5.93;4.00;;;16.00;58.10;;;;;;6230230;28;20823;-58
2021/04/02 05:10:17;;;;;;;8.23;4.40;;;15.90;58.30;;;;;;6230452;28;20487;-58
2021/04/02 05:13:22;;;;;;;12.00;4.23;;;16.00;58.40;;;;;;6229784;28;20805;-58
2021/04/02 05:16:26;;;;;;;7.17;4.13;;;16.10;58.30;;;;;;6229913;28;20483;-58
2021/04/02 05:19:29;;;;;;;6.07;4.00;;;16.00;58.20;;;;;;6229809;28;20468;-58
2021/04/02 05:22:31;;;;;;;7.83;3.60;;;16.10;58.40;;;;;;6229908;28;20478;-58
2021/04/02 05:25:33;;;;;;;9.50;4.80;;;16.00;58.40;;;;;;6229970;28;20468;-58
2021/04/02 05:28:35;;;;;;;7.70;4.23;;;16.00;58.60;;;;;;6229784;28;20815;-58
2021/04/02 05:31:38;;;;;;;6.47;3.80;;;15.90;58.70;;;;;;6229957;28;20543;-58
2021/04/02 05:34:50;;;;;;;7.80;3.50;;;16.00;59.00;;;;;;6229485;28;20491;-59
2021/04/02 05:37:52;;;;;;;11.10;4.23;;;16.00;58.90;;;;;;6229476;28;20558;-59
2021/04/02 05:40:54;;;;;;;8.37;4.10;;;16.00;58.90;;;;;;6229412;28;20463;-58
2021/04/02 05:44:01;;;;;;;4.93;4.10;;;16.00;58.90;;;;;;6229184;28;20490;-58
2021/04/02 05:47:04;;;;;;;11.27;4.70;;;16.10;58.90;;;;;;6229187;28;20494;-59
2021/04/02 05:50:09;;;;;;;5.70;4.00;;;16.10;59.00;;;;;;6229129;28;20567;-58
2021/04/02 05:53:13;;;;;;;9.73;4.73;;;16.20;59.00;;;;;;6228798;28;20494;-59
2021/04/02 05:56:15;;;;;;;10.73;4.33;;;16.20;58.90;;;;;;6228986;28;20491;-63
2021/04/02 05:59:18;;;;;;;11.63;4.60;;;16.20;59.10;;;;;;6219515;28;20472;-63
2021/04/02 06:02:21;;;;;;;10.83;4.30;;;16.30;59.60;;;;;;6228850;28;20476;-58
2021/04/02 06:05:24;;;;;;;9.60;4.20;;;16.30;59.40;;;;;;6228719;28;20476;-58
2021/04/02 06:08:27;;;;;;;9.93;4.60;;;16.30;59.30;;;;;;6228510;28;20815;-58
2021/04/02 06:11:30;;;;;;;10.63;4.50;;;16.40;59.50;;;;;;6227879;28;20490;-57
2021/04/02 06:14:32;;;;;;;10.20;6.03;;;16.40;59.30;;;;;;6228146;28;20487;-58
2021/04/02 06:17:57;;;;;;;15.00;6.33;;;16.50;59.30;;;;;;6228550;28;20830;-58
2021/04/02 06:21:00;;;;;;;15.03;6.00;;;16.60;59.20;;;;;;6228166;28;20483;-58
2021/04/02 06:24:03;;;;;;;6.93;4.40;;;16.60;58.90;;;;;;6228418;28;20494;-58
2021/04/02 06:27:08;;;;;;;5.57;3.80;;;16.60;58.70;;;;;;6228278;28;20460;-58
2021/04/02 06:30:11;;;;;;;11.27;5.40;;;16.60;58.80;;;;;;6227929;28;20498;-58
2021/04/02 06:33:13;;;;;;;14.50;4.40;;;16.60;58.70;;;;;;6227891;28;20803;-58
2021/04/02 06:36:17;;;;;;;6.33;4.20;;;16.70;58.80;;;;;;6228237;28;20491;-58
2021/04/02 06:39:20;;;;;;;10.37;4.77;;;16.70;58.80;;;;;;6228131;28;20448;-58
2021/04/02 06:42:29;;;;;;;8.73;4.83;;;16.80;58.60;;;;;;6228178;28;20448;-58
2021/04/02 06:45:32;;;;;;;5.73;3.80;;;16.80;58.70;;;;;;6227926;28;20538;-60
2021/04/02 06:48:34;;;;;;;9.80;4.50;;;16.80;58.50;;;;;;6227740;28;20498;-60
2021/04/02 06:51:38;;;;;;;10.77;5.00;;;16.90;58.60;;;;;;6227892;28;20464;-63
2021/04/02 06:54:56;;;;;;;7.80;4.00;;;16.90;58.70;;;;;;6227287;28;20622;-59
2021/04/02 06:58:06;;;;;;;10.10;4.47;;;16.90;58.80;;;;;;6227851;28;20582;-59
2021/04/02 07:01:09;;;;;;;9.50;4.47;;;17.00;58.70;;;;;;6222983;28;20964;-59
2021/04/02 07:04:15;;;;;;;10.63;4.87;;;17.10;58.60;;;;;;6227474;28;20589;-59
2021/04/02 07:07:20;;;;;;;7.40;4.23;;;17.20;58.10;;;;;;6227180;28;20792;-57
2021/04/02 07:10:23;;;;;;;7.53;4.13;;;17.30;57.80;;;;;;6227037;28;20483;-59
2021/04/02 07:13:35;;;;;;;8.17;4.67;;;17.40;57.60;;;;;;6227007;28;20914;-59
2021/04/02 07:16:39;;;;;;;14.03;5.40;;;17.40;57.60;;;;;;6226962;28;20476;-57
2021/04/02 07:19:43;;;;;;;10.87;4.73;;;17.50;57.70;;;;;;6227029;28;20816;-59
2021/04/02 07:22:46;;;;;;;11.20;5.57;;;17.50;57.10;;;;;;6225696;28;20475;-58
2021/04/02 07:25:49;;;;;;;10.23;5.30;;;17.50;57.10;;;;;;6226727;28;20611;-58
2021/04/02 07:28:52;;;;;;;8.57;4.83;;;17.60;57.00;;;;;;6247980;28;20463;-58
2021/04/02 07:31:55;;;;;;;7.37;5.40;;;17.60;56.90;;;;;;6242597;28;20487;-58
2021/04/02 07:34:57;;;;;;;9.23;4.43;;;17.80;56.80;;;;;;6232987;28;20476;-58
2021/04/02 07:38:00;;;;;;;9.03;4.93;;;17.80;56.50;;;;;;6250955;28;20477;-58
2021/04/02 07:41:08;;;;;;;12.43;5.03;;;17.90;56.20;;;;;;6234784;28;20468;-58
2021/04/02 07:44:14;;;;;;;9.00;4.50;;;18.00;56.20;;;;;;6225913;28;20476;-58
2021/04/02 07:47:17;;;;;;;9.40;4.77;;;17.90;55.90;;;;;;6226180;28;20476;-59
2021/04/02 07:50:40;;;;;;;7.60;5.10;;;17.80;56.00;;;;;;6248053;28;20479;-59
2021/04/02 07:53:46;;;;;;;7.17;4.27;;;17.80;56.20;;;;;;6250097;28;20478;-58
2021/04/02 07:56:50;;;;;;;9.10;5.10;;;17.80;56.40;;;;;;6250558;28;20479;-63
2021/04/02 07:59:53;;;;;;;11.43;4.80;;;17.80;56.70;;;;;;6250327;28;20467;-60
2021/04/02 08:03:14;;;;;;;11.63;5.00;;;17.80;56.70;;;;;;6250007;28;20968;-60
2021/04/02 08:06:30;;;;;;;8.77;5.13;;;17.80;57.80;;;;;;6237618;28;20800;-61
2021/04/02 08:09:34;;;;;;;19.47;6.30;;;17.90;57.20;;;;;;6226120;28;20467;-60
2021/04/02 08:12:36;;;;;;;10.40;5.13;;;18.00;57.40;;;;;;6225970;28;20479;-59
2021/04/02 08:15:39;;;;;;;10.33;5.00;;;18.20;58.10;;;;;;6225429;28;20615;-60
2021/04/02 08:19:00;;;;;;;11.47;5.43;;;18.30;56.80;;;;;;6225859;28;20630;-60
2021/04/02 08:22:05;;;;;;;11.80;5.13;;;18.60;56.70;;;;;;6225905;28;20708;-59
2021/04/02 08:25:10;;;;;;;9.80;5.00;;;18.70;55.80;;;;;;6225522;28;20240;-61
2021/04/02 08:28:13;;;;;;;8.90;5.17;;;18.80;55.70;;;;;;6225699;28;20233;-60
2021/04/02 08:31:16;;;;;;;10.10;5.23;;;19.20;54.80;;;;;;6225804;28;20240;-60
2021/04/02 08:34:20;;;;;;;9.67;5.47;;;19.10;54.10;;;;;;6225070;28;20700;-61
2021/04/02 08:37:23;;;;;;;10.90;5.77;;;18.70;54.40;;;;;;6224999;28;20229;-59
2021/04/02 08:40:26;;;;;;;6.53;5.13;;;18.60;54.70;;;;;;6238770;28;20224;-61
2021/04/02 08:43:40;;;;;;;9.37;4.60;;;18.90;54.30;;;;;;6249642;28;20232;-60
2021/04/02 08:46:45;;;;;;;7.23;5.60;;;19.50;53.50;;;;;;6249834;28;20247;-61
2021/04/02 08:49:51;;;;;;;9.47;5.93;;;20.00;52.10;;;;;;6249824;28;20234;-59
2021/04/02 08:53:02;;;;;;;11.73;6.97;;;20.60;51.50;;;;;;6249050;28;20258;-60
2021/04/02 08:56:06;;;;;;;8.97;4.97;;;21.40;49.40;;;;;;6249758;28;20236;-58
2021/04/02 08:59:11;;;;;;;11.60;6.80;;;21.40;48.90;;;;;;6243248;28;20227;-58
2021/04/02 09:02:15;;;;;;;11.73;6.83;;;21.20;49.00;;;;;;6235246;28;20313;-60
2021/04/02 09:05:17;;;;;;;8.93;6.10;;;21.50;48.60;;;;;;6243117;28;20232;-61
2021/04/02 09:08:20;;;;;;;9.53;6.97;;;22.40;47.00;;;;;;6249276;28;20228;-61
2021/04/02 09:11:27;;;;;;;13.77;6.60;;;22.10;47.10;;;;;;6249694;28;20238;-61
2021/04/02 09:14:32;;;;;;;12.27;7.13;;;22.70;46.70;;;;;;6249563;28;20242;-61
2021/04/02 09:17:34;;;;;;;8.90;5.23;;;23.30;45.60;;;;;;6249272;28;20228;-61
2021/04/02 09:20:38;;;;;;;10.33;6.53;;;23.20;45.30;;;;;;6249709;28;20229;-62
2021/04/02 09:23:41;;;;;;;7.37;6.20;;;22.90;45.40;;;;;;6240638;28;20678;-63
2021/04/02 09:26:45;;;;;;;7.07;6.13;;;23.30;45.40;;;;;;6246465;28;20310;-60
2021/04/02 09:29:55;;;;;;;15.60;8.40;;;23.10;44.60;;;;;;6249121;28;20236;-60
2021/04/02 09:32:57;;;;;;;8.43;6.23;;;22.30;46.00;;;;;;6232857;28;20308;-59
2021/04/02 09:36:00;;;;;;;8.57;6.47;;;23.10;46.20;;;;;;6234039;28;20298;-60
2021/04/02 09:39:06;;;;;;;12.87;7.43;;;25.50;42.10;;;;;;6241808;28;20225;-60
2021/04/02 09:42:15;;;;;;;11.27;7.07;;;25.60;40.70;;;;;;6249218;28;20559;-60
2021/04/02 09:45:18;;;;;;;9.03;7.77;;;25.00;41.20;;;;;;6249099;28;20225;-60
2021/04/02 09:48:21;;;;;;;10.90;7.43;;;24.20;42.20;;;;;;6253874;28;20226;-60
2021/04/02 09:51:24;;;;;;;9.40;8.33;;;24.60;44.00;;;;;;6239520;28;20205;-58
2021/04/02 09:54:30;;;;;;;9.50;8.53;;;28.30;38.10;;;;;;6241259;28;20232;-61
2021/04/02 09:57:33;;;;;;;11.43;8.00;;;30.60;34.40;;;;;;6231179;28;20276;-63
2021/04/02 10:00:36;;;;;;;12.38;9.10;;;33.30;30.70;;;;;;6228672;28;20220;-62
2021/04/02 10:03:39;;;;;;;11.13;8.90;;;33.80;28.70;;;;;;6228454;28;20228;-59
2021/04/02 10:06:42;;;;;;;10.38;9.00;;;35.00;28.00;;;;;;6233712;28;20275;-62
2021/04/02 10:09:45;;;;;;;12.23;9.65;;;33.70;27.30;;;;;;6243836;28;20232;-62
2021/04/02 10:12:50;;;;;;;10.30;9.35;;;30.70;30.40;;;;;;6252644;28;20242;-60
2021/04/02 10:15:53;;;;;;;14.20;9.83;;;29.60;31.70;;;;;;6252798;28;20685;-61
2021/04/02 10:18:55;;;;;;;8.80;7.90;;;29.10;32.60;;;;;;6252605;28;20239;-62
2021/04/02 10:21:57;;;;;;;17.30;10.00;;;28.80;32.10;;;;;;6252563;28;20224;-67
2021/04/02 10:25:00;;;;;;;10.43;9.30;;;28.50;32.70;;;;;;6229879;28;20236;-61
2021/04/02 10:28:04;;;;;;;11.00;9.00;;;28.10;33.30;;;;;;6228084;28;20239;-61
2021/04/02 10:31:06;;;;;;;13.40;9.87;;;27.60;34.10;;;;;;6227820;28;20233;-61
2021/04/02 10:34:09;;;;;;;12.03;9.93;;;26.50;35.30;;;;;;6228072;28;20232;-60
2021/04/02 10:37:12;;;;;;;10.93;9.17;;;25.80;36.50;;;;;;6227664;28;20238;-62
2021/04/02 10:40:16;;;;;;;12.03;9.43;;;25.20;37.70;;;;;;6238972;28;20251;-61
2021/04/02 10:43:19;;;;;;;11.93;9.77;;;24.20;38.70;;;;;;6251749;28;20228;-61
2021/04/02 10:46:21;;;;;;;10.90;9.80;;;23.70;40.00;;;;;;6252020;28;20752;-61
2021/04/02 10:49:23;;;;;;;12.33;9.00;;;23.60;41.10;;;;;;6232900;28;20232;-61
2021/04/02 10:52:25;;;;;;;12.00;9.00;;;23.10;41.30;;;;;;6227230;28;20259;-60
2021/04/02 10:55:28;;;;;;;12.63;10.87;;;22.70;42.20;;;;;;6227577;28;20229;-60
2021/04/02 10:58:32;;;;;;;11.57;10.47;;;22.60;42.40;;;;;;6227237;28;20237;-60
2021/04/02 11:01:34;;;;;;;10.77;8.93;;;22.30;42.90;;;;;;6226694;28;20229;-60
2021/04/02 11:04:40;;;;;;;10.93;9.93;;;22.00;43.90;;;;;;6227123;28;20243;-60
2021/04/02 11:07:42;;;;;;;15.90;11.10;;;22.20;44.30;;;;;;6226817;28;20248;-61
2021/04/02 11:10:44;;;;;;;17.73;11.20;;;22.50;43.60;;;;;;6250608;28;20239;-60
2021/04/02 11:13:48;;;;;;;11.80;10.00;;;23.20;43.10;;;;;;6237300;28;20677;-60
2021/04/02 11:16:50;;;;;;;16.73;10.73;;;23.50;41.90;;;;;;6251188;28;20232;-60
2021/04/02 11:19:56;;;;;;;13.10;11.47;;;23.30;41.60;;;;;;6251534;28;20310;-60
2021/04/02 11:22:59;;;;;;;13.43;9.90;;;23.40;41.70;;;;;;6251281;28;20233;-60
2021/04/02 11:26:01;;;;;;;12.17;10.77;;;23.50;41.70;;;;;;6250532;28;20278;-60
2021/04/02 11:29:04;;;;;;;14.87;10.73;;;23.30;42.00;;;;;;6227031;28;20241;-60
2021/04/02 11:32:08;;;;;;;14.93;10.93;;;23.20;42.00;;;;;;6226717;28;20712;-60
2021/04/02 11:35:11;;;;;;;13.47;10.90;;;23.20;42.70;;;;;;6226520;28;20229;-63
2021/04/02 11:38:13;;;;;;;12.03;8.93;;;23.80;41.50;;;;;;6226593;28;20244;-60
2021/04/02 11:41:15;;;;;;;11.00;10.00;;;24.50;40.50;;;;;;6245858;28;20216;-61
2021/04/02 11:44:18;;;;;;;10.43;9.40;;;24.90;39.70;;;;;;6250929;28;20240;-60
2021/04/02 11:47:21;;;;;;;14.97;10.80;;;25.20;39.10;;;;;;6250480;28;20568;-60
2021/04/02 11:50:23;;;;;;;13.03;11.73;;;25.40;38.30;;;;;;6250797;28;20242;-61
2021/04/02 11:53:25;;;;;;;13.57;10.63;;;25.00;38.40;;;;;;6250029;28;20583;-60
2021/04/02 11:56:28;;;;;;;12.43;10.80;;;24.70;38.90;;;;;;6250452;28;20362;-61
2021/04/02 11:59:31;;;;;;;12.30;11.03;;;24.40;39.30;;;;;;6250565;28;20228;-60
2021/04/02 12:02:33;;;;;;;11.50;10.37;;;24.10;39.90;;;;;;6250242;28;20581;-61
2021/04/02 12:05:35;;;;;;;14.70;10.93;;;24.00;40.50;;;;;;6250601;28;20354;-61
2021/04/02 12:08:37;;;;;;;13.30;11.17;;;23.90;40.90;;;;;;6249496;28;20573;-62
2021/04/02 12:11:40;;;;;;;14.27;9.87;;;23.90;41.10;;;;;;6249822;28;20232;-60
2021/04/02 12:14:43;;;;;;;17.33;11.07;;;24.00;41.40;;;;;;6243674;28;20235;-61
2021/04/02 12:17:46;;;;;;;20.60;13.17;;;24.40;40.80;;;;;;6247983;28;20236;-62
2021/04/02 12:20:48;;;;;;;18.00;14.23;;;24.30;40.80;;;;;;6247862;28;20694;-59
2021/04/02 12:23:50;;;;;;;23.53;21.30;;;23.90;41.50;;;;;;6247792;28;20390;-59
2021/04/02 12:26:52;;;;;;;26.20;23.50;;;23.50;42.50;;;;;;6248362;28;20221;-60
2021/04/02 12:29:56;;;;;;;25.60;22.50;;;23.20;43.10;;;;;;6249941;28;20227;-59
2021/04/02 12:32:58;;;;;;;26.47;23.80;;;23.00;43.70;;;;;;6233518;28;20678;-60
2021/04/02 12:36:00;;;;;;;24.90;22.30;;;23.20;43.60;;;;;;6225690;28;20248;-61
2021/04/02 12:39:03;;;;;;;22.97;20.67;;;23.60;43.40;;;;;;6229004;28;20228;-62
2021/04/02 12:42:06;;;;;;;24.30;20.43;;;23.70;42.80;;;;;;6225143;28;20322;-60
2021/04/02 12:45:12;;;;;;;27.13;22.97;;;24.20;42.60;;;;;;6225098;28;20315;-62
2021/04/02 12:48:14;;;;;;;26.17;23.70;;;24.60;42.00;;;;;;6224802;28;20216;-60
2021/04/02 12:51:16;;;;;;;26.60;23.83;;;24.90;41.40;;;;;;6225062;28;20616;-61
2021/04/02 12:54:19;;;;;;;26.10;23.50;;;24.90;40.60;;;;;;6224582;28;20244;-61
2021/04/02 12:57:21;;;;;;;24.97;22.50;;;24.40;41.30;;;;;;6224864;28;20232;-61
2021/04/02 13:00:26;;;;;;;23.27;21.07;;;24.20;41.60;;;;;;6224970;28;20662;-60
2021/04/02 13:03:29;;;;;;;25.73;23.27;;;23.60;42.70;;;;;;6225323;28;20229;-61
2021/04/02 13:06:31;;;;;;;26.43;23.93;;;23.70;43.00;;;;;;6222226;28;20228;-62
2021/04/02 13:09:33;;;;;;;26.80;24.00;;;23.60;42.50;;;;;;6221621;28;20672;-61
2021/04/02 13:12:35;;;;;;;22.90;20.60;;;23.60;42.70;;;;;;6222848;28;20578;-61
2021/04/02 13:15:39;;;;;;;26.90;24.07;;;23.60;42.80;;;;;;6237138;28;20235;-60
2021/04/02 13:18:41;;;;;;;24.17;21.87;;;23.50;42.70;;;;;;6244791;28;20232;-60
2021/04/02 13:21:44;;;;;;;21.87;19.67;;;23.60;42.20;;;;;;6236404;28;20236;-60
2021/04/02 13:24:46;;;;;;;24.43;21.90;;;24.00;42.30;;;;;;6249567;28;20239;-60
2021/04/02 13:27:48;;;;;;;28.90;26.07;;;24.30;42.60;;;;;;6253664;28;20232;-60
2021/04/02 13:30:54;;;;;;;26.43;23.73;;;24.30;42.30;;;;;;6253590;28;20228;-60
2021/04/02 13:33:56;;;;;;;28.00;25.10;;;24.10;42.10;;;;;;6253491;28;20310;-59
2021/04/02 13:36:58;;;;;;;27.67;24.77;;;23.80;42.30;;;;;;6237182;28;20578;-59
2021/04/02 13:40:01;;;;;;;29.57;24.97;;;23.50;43.00;;;;;;6239867;28;20239;-59
2021/04/02 13:43:04;;;;;;;29.10;26.30;;;23.10;43.20;;;;;;6252959;28;20565;-60
2021/04/02 13:46:07;;;;;;;30.27;26.97;;;22.60;43.80;;;;;;6253088;28;20582;-60
2021/04/02 13:49:10;;;;;;;31.43;28.17;;;22.30;44.70;;;;;;6252935;28;20236;-59
2021/04/02 13:52:12;;;;;;;27.73;24.83;;;22.00;45.90;;;;;;6252725;28;20224;-59
2021/04/02 13:55:16;;;;;;;28.80;25.80;;;21.70;47.00;;;;;;6253057;28;20673;-59
2021/04/02 13:58:20;;;;;;;28.87;25.90;;;21.50;47.50;;;;;;6252568;28;20240;-58
2021/04/02 14:01:23;;;;;;;29.23;26.23;;;21.40;48.20;;;;;;6252813;28;20228;-59
2021/04/02 14:04:25;;;;;;;28.03;24.43;;;21.40;48.10;;;;;;6252763;28;20573;-59
2021/04/02 14:07:28;;;;;;;29.03;25.47;;;21.60;48.50;;;;;;6252420;28;20236;-59
2021/04/02 14:10:33;;;;;;;29.03;26.00;;;21.90;48.00;;;;;;6252351;28;20232;-58
2021/04/02 14:13:36;;;;;;;28.40;24.73;;;22.00;46.60;;;;;;6248783;28;20236;-60
2021/04/02 14:16:42;;;;;;;29.07;26.10;;;21.90;46.60;;;;;;6252502;28;20225;-60
2021/04/02 14:19:44;;;;;;;25.37;22.80;;;21.70;47.50;;;;;;6251682;28;20229;-59
2021/04/02 14:22:47;;;;;;;27.77;24.97;;;21.30;48.20;;;;;;6251986;28;20246;-59
2021/04/02 14:25:49;;;;;;;27.33;24.50;;;21.10;48.80;;;;;;6252422;28;20224;-60
2021/04/02 14:28:51;;;;;;;27.80;24.90;;;20.90;48.00;;;;;;6251898;28;20231;-59
2021/04/02 14:31:55;;;;;;;26.90;23.20;;;20.70;48.00;;;;;;6241003;28;20234;-60
2021/04/02 14:34:57;;;;;;;25.57;22.90;;;20.60;48.30;;;;;;6229458;28;20243;-58
2021/04/02 14:38:00;;;;;;;28.30;23.90;;;20.60;48.20;;;;;;6227398;28;20237;-60
2021/04/02 14:41:03;;;;;;;27.33;23.57;;;20.60;48.20;;;;;;6245067;28;20232;-59
2021/04/02 14:44:07;;;;;;;28.60;23.10;;;20.70;48.20;;;;;;6251749;28;20243;-59
2021/04/02 14:47:11;;;;;;;25.83;23.27;;;20.70;47.80;;;;;;6251573;28;20220;-60
2021/04/02 14:50:15;;;;;;;26.53;23.90;;;20.80;48.30;;;;;;6251703;28;20367;-59
2021/04/02 14:53:17;;;;;;;24.57;22.07;;;20.70;47.50;;;;;;6241752;28;20244;-60
2021/04/02 14:56:19;;;;;;;26.93;23.93;;;20.70;48.20;;;;;;6246316;28;20228;-60
2021/04/02 14:59:21;;;;;;;26.10;22.80;;;20.60;47.40;;;;;;6251741;28;20590;-59
2021/04/02 15:02:30;;;;;;;24.77;22.30;;;20.50;47.70;;;;;;6251859;28;20240;-59
2021/04/02 15:05:33;;;;;;;25.80;21.47;;;20.50;47.60;;;;;;6248329;28;20231;-59
2021/04/02 15:08:37;;;;;;;26.00;23.20;;;20.50;47.40;;;;;;6237022;28;20229;-61
2021/04/02 15:11:39;;;;;;;25.03;22.47;;;20.30;47.10;;;;;;6240654;28;20232;-60
2021/04/02 15:14:41;;;;;;;28.47;24.97;;;20.40;47.40;;;;;;6240753;28;20752;-61
2021/04/02 15:17:44;;;;;;;27.53;23.90;;;20.50;46.80;;;;;;6251350;28;20224;-61
2021/04/02 15:20:47;;;;;;;27.20;24.17;;;20.40;47.10;;;;;;6246233;28;20228;-61
2021/04/02 15:23:49;;;;;;;27.90;24.00;;;20.30;46.60;;;;;;6251015;28;20246;-61
2021/04/02 15:26:52;;;;;;;26.40;23.20;;;20.00;47.30;;;;;;6251166;28;20562;-61
2021/04/02 15:29:57;;;;;;;29.60;24.83;;;19.70;47.80;;;;;;6251350;28;20224;-61
2021/04/02 15:33:00;;;;;;;30.27;23.47;;;19.40;48.20;;;;;;6234806;28;20240;-61
2021/04/02 15:36:02;;;;;;;25.40;22.70;;;19.20;48.60;;;;;;6226426;28;20240;-59
2021/04/02 15:39:05;;;;;;;32.37;24.40;;;19.10;49.00;;;;;;6227805;28;20264;-60
2021/04/02 15:42:08;;;;;;;30.13;24.43;;;18.90;49.00;;;;;;6250808;28;20285;-60
2021/04/02 15:45:11;;;;;;;27.30;22.60;;;18.80;49.40;;;;;;6249556;28;20239;-61
2021/04/02 15:48:14;;;;;;;28.07;25.07;;;18.90;49.80;;;;;;6250871;28;20250;-61